Amasa, Michigan
Current Conditions -  °F | °C
As of 7:44 AM on Friday 31 Oct 2014 (Local Time) from KIMT Reporting Station
Broken Clouds Broken Clouds  
Wind Chill: 17°   Ceiling: 2300
Heat Index: 29°   Visibility: 10mi
Dew Point: 22°   Wind: 17mph
Humidity: 75%   Direction: 360°N
Pressure: 30.26"   Gusts: 30mph
Location:  46.23°N, 88.45°W
Report Text: KIMT 311244Z AUTO 36015G26KT 10SM BKN023 BKN028 BKN042 M02/M06 A3026 RMK AO2 PK WND 01028/1222 T10171056
Loading
Personal Weather Stations






























Interactive Weather Map
Tropical Storm Tracking
New forecast layout! Learn more

10-Day Weather Forecast

Advertisements
Track Severe Weather on mobile